<?xml version="1.0" encoding="UTF-8" standalone="no" ?>
<gpx xmlns="http://www.topografix.com/GPX/1/1" xmlns:xsi="http://www.w3.org/2001/XMLSchema-instance" xsi:schemaLocation="http://www.topografix.com/GPX/1/1 http://www.topografix.com/GPX/1/1/gpx.xsd" version="1.1" creator="VisuGPX - https://www.visugpx.com">
  <metadata>
    <name>traceVrigneux La rando de Christine</name>
    <desc><![CDATA[Organisation ACP3C www.lapierredes3communes]]></desc>
  </metadata>
  <trk>
    <name><![CDATA[Rando Christine Virigneux 2025-20771543]]></name>
    <extensions>
      <line xmlns="http://www.topografix.com/GPX/gpx_style/0/2">
        <color>0000FF</color>
        <width>4</width>
      </line>
    </extensions>
    <trkseg>
      <trkpt lat="45.68866" lon="4.35596">
        <ele>543</ele>
        <time>2025-04-10T06:56:59Z</time>
      </trkpt>
      <trkpt lat="45.68827" lon="4.35598">
        <ele>546</ele>
        <time>2025-04-10T06:57:30Z</time>
      </trkpt>
      <trkpt lat="45.68837" lon="4.3555">
        <ele>544</ele>
        <time>2025-04-10T06:57:58Z</time>
      </trkpt>
      <trkpt lat="45.68758" lon="4.35499">
        <ele>538</ele>
        <time>2025-04-10T06:59:08Z</time>
      </trkpt>
      <trkpt lat="45.68677" lon="4.35463">
        <ele>530</ele>
        <time>2025-04-10T07:00:16Z</time>
      </trkpt>
      <trkpt lat="45.68581" lon="4.35393">
        <ele>513</ele>
        <time>2025-04-10T07:01:42Z</time>
      </trkpt>
      <trkpt lat="45.68498" lon="4.35344">
        <ele>494</ele>
        <time>2025-04-10T07:02:54Z</time>
      </trkpt>
      <trkpt lat="45.68398" lon="4.35503">
        <ele>492</ele>
        <time>2025-04-10T07:04:53Z</time>
      </trkpt>
      <trkpt lat="45.68373" lon="4.35574">
        <ele>490</ele>
        <time>2025-04-10T07:05:38Z</time>
      </trkpt>
      <trkpt lat="45.68373" lon="4.35644">
        <ele>492</ele>
        <time>2025-04-10T07:06:17Z</time>
      </trkpt>
      <trkpt lat="45.68352" lon="4.35719">
        <ele>492</ele>
        <time>2025-04-10T07:07:02Z</time>
      </trkpt>
      <trkpt lat="45.68302" lon="4.35891">
        <ele>496</ele>
        <time>2025-04-10T07:08:46Z</time>
      </trkpt>
      <trkpt lat="45.68283" lon="4.36031">
        <ele>499</ele>
        <time>2025-04-10T07:10:06Z</time>
      </trkpt>
      <trkpt lat="45.68304" lon="4.36154">
        <ele>502</ele>
        <time>2025-04-10T07:11:17Z</time>
      </trkpt>
      <trkpt lat="45.68312" lon="4.36275">
        <ele>495</ele>
        <time>2025-04-10T07:12:25Z</time>
      </trkpt>
      <trkpt lat="45.68321" lon="4.36356">
        <ele>492</ele>
        <time>2025-04-10T07:13:11Z</time>
      </trkpt>
      <trkpt lat="45.68368" lon="4.36426">
        <ele>493</ele>
        <time>2025-04-10T07:14:05Z</time>
      </trkpt>
      <trkpt lat="45.6839" lon="4.36428">
        <ele>495</ele>
        <time>2025-04-10T07:14:23Z</time>
      </trkpt>
      <trkpt lat="45.68384" lon="4.36503">
        <ele>495</ele>
        <time>2025-04-10T07:15:05Z</time>
      </trkpt>
      <trkpt lat="45.68361" lon="4.36585">
        <ele>499</ele>
        <time>2025-04-10T07:15:54Z</time>
      </trkpt>
      <trkpt lat="45.68349" lon="4.36658">
        <ele>505</ele>
        <time>2025-04-10T07:16:36Z</time>
      </trkpt>
      <trkpt lat="45.68314" lon="4.36791">
        <ele>523</ele>
        <time>2025-04-10T07:17:56Z</time>
      </trkpt>
      <trkpt lat="45.68291" lon="4.3685">
        <ele>528</ele>
        <time>2025-04-10T07:18:34Z</time>
      </trkpt>
      <trkpt lat="45.6826" lon="4.3693">
        <ele>530</ele>
        <time>2025-04-10T07:19:25Z</time>
      </trkpt>
      <trkpt lat="45.68298" lon="4.37093">
        <ele>557</ele>
        <time>2025-04-10T07:21:01Z</time>
      </trkpt>
      <trkpt lat="45.68256" lon="4.37244">
        <ele>568</ele>
        <time>2025-04-10T07:22:32Z</time>
      </trkpt>
      <trkpt lat="45.68238" lon="4.37303">
        <ele>571</ele>
        <time>2025-04-10T07:23:08Z</time>
      </trkpt>
      <trkpt lat="45.68215" lon="4.37425">
        <ele>576</ele>
        <time>2025-04-10T07:24:19Z</time>
      </trkpt>
      <trkpt lat="45.68184" lon="4.37521">
        <ele>583</ele>
        <time>2025-04-10T07:25:18Z</time>
      </trkpt>
      <trkpt lat="45.68109" lon="4.37757">
        <ele>602</ele>
        <time>2025-04-10T07:27:43Z</time>
      </trkpt>
      <trkpt lat="45.68034" lon="4.38071">
        <ele>615</ele>
        <time>2025-04-10T07:30:48Z</time>
      </trkpt>
      <trkpt lat="45.68113" lon="4.38189">
        <ele>614</ele>
        <time>2025-04-10T07:32:20Z</time>
      </trkpt>
      <trkpt lat="45.68063" lon="4.38311">
        <ele>607</ele>
        <time>2025-04-10T07:33:39Z</time>
      </trkpt>
      <trkpt lat="45.6797" lon="4.38442">
        <ele>589</ele>
        <time>2025-04-10T07:35:23Z</time>
      </trkpt>
      <trkpt lat="45.67952" lon="4.38481">
        <ele>584</ele>
        <time>2025-04-10T07:35:50Z</time>
      </trkpt>
      <trkpt lat="45.67907" lon="4.38513">
        <ele>575</ele>
        <time>2025-04-10T07:36:30Z</time>
      </trkpt>
      <trkpt lat="45.67841" lon="4.38541">
        <ele>564</ele>
        <time>2025-04-10T07:37:25Z</time>
      </trkpt>
      <trkpt lat="45.6782" lon="4.38607">
        <ele>558</ele>
        <time>2025-04-10T07:38:06Z</time>
      </trkpt>
      <trkpt lat="45.67822" lon="4.38755">
        <ele>543</ele>
        <time>2025-04-10T07:39:28Z</time>
      </trkpt>
      <trkpt lat="45.67806" lon="4.38756">
        <ele>541</ele>
        <time>2025-04-10T07:39:41Z</time>
      </trkpt>
      <trkpt lat="45.67839" lon="4.38848">
        <ele>530</ele>
        <time>2025-04-10T07:40:39Z</time>
      </trkpt>
      <trkpt lat="45.67899" lon="4.38929">
        <ele>527</ele>
        <time>2025-04-10T07:41:45Z</time>
      </trkpt>
      <trkpt lat="45.67916" lon="4.38974">
        <ele>529</ele>
        <time>2025-04-10T07:42:14Z</time>
      </trkpt>
      <trkpt lat="45.67916" lon="4.39245">
        <ele>521</ele>
        <time>2025-04-10T07:44:45Z</time>
      </trkpt>
      <trkpt lat="45.67924" lon="4.39331">
        <ele>513</ele>
        <time>2025-04-10T07:45:34Z</time>
      </trkpt>
      <trkpt lat="45.67923" lon="4.39502">
        <ele>504</ele>
        <time>2025-04-10T07:47:10Z</time>
      </trkpt>
      <trkpt lat="45.67937" lon="4.39579">
        <ele>504</ele>
        <time>2025-04-10T07:47:54Z</time>
      </trkpt>
      <trkpt lat="45.68021" lon="4.39661">
        <ele>506</ele>
        <time>2025-04-10T07:49:15Z</time>
      </trkpt>
      <trkpt lat="45.6807" lon="4.39721">
        <ele>505</ele>
        <time>2025-04-10T07:50:07Z</time>
      </trkpt>
      <trkpt lat="45.68102" lon="4.39833">
        <ele>503</ele>
        <time>2025-04-10T07:51:15Z</time>
      </trkpt>
      <trkpt lat="45.68109" lon="4.39906">
        <ele>499</ele>
        <time>2025-04-10T07:51:56Z</time>
      </trkpt>
      <trkpt lat="45.68135" lon="4.39962">
        <ele>495</ele>
        <time>2025-04-10T07:52:34Z</time>
      </trkpt>
      <trkpt lat="45.68186" lon="4.40025">
        <ele>494</ele>
        <time>2025-04-10T07:53:28Z</time>
      </trkpt>
      <trkpt lat="45.68198" lon="4.4015">
        <ele>495</ele>
        <time>2025-04-10T07:54:38Z</time>
      </trkpt>
      <trkpt lat="45.68359" lon="4.40016">
        <ele>516</ele>
        <time>2025-04-10T07:57:07Z</time>
      </trkpt>
      <trkpt lat="45.68365" lon="4.4016">
        <ele>512</ele>
        <time>2025-04-10T07:58:28Z</time>
      </trkpt>
      <trkpt lat="45.68356" lon="4.4041">
        <ele>498</ele>
        <time>2025-04-10T08:00:48Z</time>
      </trkpt>
      <trkpt lat="45.6836" lon="4.4058">
        <ele>492</ele>
        <time>2025-04-10T08:02:23Z</time>
      </trkpt>
      <trkpt lat="45.68387" lon="4.40854">
        <ele>484</ele>
        <time>2025-04-10T08:04:58Z</time>
      </trkpt>
      <trkpt lat="45.68406" lon="4.40891">
        <ele>483</ele>
        <time>2025-04-10T08:05:24Z</time>
      </trkpt>
      <trkpt lat="45.685" lon="4.40845">
        <ele>488</ele>
        <time>2025-04-10T08:06:43Z</time>
      </trkpt>
      <trkpt lat="45.68584" lon="4.40836">
        <ele>493</ele>
        <time>2025-04-10T08:07:51Z</time>
      </trkpt>
      <trkpt lat="45.68642" lon="4.40869">
        <ele>493</ele>
        <time>2025-04-10T08:08:41Z</time>
      </trkpt>
      <trkpt lat="45.6875" lon="4.40836">
        <ele>493</ele>
        <time>2025-04-10T08:10:09Z</time>
      </trkpt>
      <trkpt lat="45.68752" lon="4.40839">
        <ele>493</ele>
        <time>2025-04-10T08:10:11Z</time>
      </trkpt>
      <trkpt lat="45.68806" lon="4.40922">
        <ele>495</ele>
        <time>2025-04-10T08:11:15Z</time>
      </trkpt>
      <trkpt lat="45.68875" lon="4.40961">
        <ele>501</ele>
        <time>2025-04-10T08:12:14Z</time>
      </trkpt>
      <trkpt lat="45.68959" lon="4.40949">
        <ele>513</ele>
        <time>2025-04-10T08:13:22Z</time>
      </trkpt>
      <trkpt lat="45.69001" lon="4.40898">
        <ele>522</ele>
        <time>2025-04-10T08:14:06Z</time>
      </trkpt>
      <trkpt lat="45.69017" lon="4.40854">
        <ele>526</ele>
        <time>2025-04-10T08:14:34Z</time>
      </trkpt>
      <trkpt lat="45.69072" lon="4.4078">
        <ele>534</ele>
        <time>2025-04-10T08:15:34Z</time>
      </trkpt>
      <trkpt lat="45.69146" lon="4.40765">
        <ele>547</ele>
        <time>2025-04-10T08:16:34Z</time>
      </trkpt>
      <trkpt lat="45.69211" lon="4.40725">
        <ele>555</ele>
        <time>2025-04-10T08:17:30Z</time>
      </trkpt>
      <trkpt lat="45.69345" lon="4.4071">
        <ele>573</ele>
        <time>2025-04-10T08:19:18Z</time>
      </trkpt>
      <trkpt lat="45.69314" lon="4.4082">
        <ele>578</ele>
        <time>2025-04-10T08:20:24Z</time>
      </trkpt>
      <trkpt lat="45.6936" lon="4.40883">
        <ele>584</ele>
        <time>2025-04-10T08:21:15Z</time>
      </trkpt>
      <trkpt lat="45.69415" lon="4.40833">
        <ele>592</ele>
        <time>2025-04-10T08:22:08Z</time>
      </trkpt>
      <trkpt lat="45.69539" lon="4.40763">
        <ele>608</ele>
        <time>2025-04-10T08:23:54Z</time>
      </trkpt>
      <trkpt lat="45.69585" lon="4.407">
        <ele>616</ele>
        <time>2025-04-10T08:24:45Z</time>
      </trkpt>
      <trkpt lat="45.69681" lon="4.40677">
        <ele>618</ele>
        <time>2025-04-10T08:26:03Z</time>
      </trkpt>
      <trkpt lat="45.69767" lon="4.40633">
        <ele>616</ele>
        <time>2025-04-10T08:27:16Z</time>
      </trkpt>
      <trkpt lat="45.69809" lon="4.40631">
        <ele>615</ele>
        <time>2025-04-10T08:27:50Z</time>
      </trkpt>
      <trkpt lat="45.69859" lon="4.40676">
        <ele>614</ele>
        <time>2025-04-10T08:28:37Z</time>
      </trkpt>
      <trkpt lat="45.69902" lon="4.4071">
        <ele>612</ele>
        <time>2025-04-10T08:29:17Z</time>
      </trkpt>
      <trkpt lat="45.70003" lon="4.40762">
        <ele>608</ele>
        <time>2025-04-10T08:30:42Z</time>
      </trkpt>
      <trkpt lat="45.70128" lon="4.40712">
        <ele>595</ele>
        <time>2025-04-10T08:32:26Z</time>
      </trkpt>
      <trkpt lat="45.70213" lon="4.40815">
        <ele>588</ele>
        <time>2025-04-10T08:33:56Z</time>
      </trkpt>
      <trkpt lat="45.70337" lon="4.40812">
        <ele>574</ele>
        <time>2025-04-10T08:35:35Z</time>
      </trkpt>
      <trkpt lat="45.70386" lon="4.40839">
        <ele>572</ele>
        <time>2025-04-10T08:36:17Z</time>
      </trkpt>
      <trkpt lat="45.70497" lon="4.40908">
        <ele>574</ele>
        <time>2025-04-10T08:37:54Z</time>
      </trkpt>
      <trkpt lat="45.70487" lon="4.40956">
        <ele>571</ele>
        <time>2025-04-10T08:38:22Z</time>
      </trkpt>
      <trkpt lat="45.70501" lon="4.41037">
        <ele>565</ele>
        <time>2025-04-10T08:39:08Z</time>
      </trkpt>
      <trkpt lat="45.70541" lon="4.41124">
        <ele>565</ele>
        <time>2025-04-10T08:40:07Z</time>
      </trkpt>
      <trkpt lat="45.70525" lon="4.41189">
        <ele>553</ele>
        <time>2025-04-10T08:40:45Z</time>
      </trkpt>
      <trkpt lat="45.70493" lon="4.41151">
        <ele>546</ele>
        <time>2025-04-10T08:41:19Z</time>
      </trkpt>
      <trkpt lat="45.70351" lon="4.41148">
        <ele>533</ele>
        <time>2025-04-10T08:43:12Z</time>
      </trkpt>
      <trkpt lat="45.70297" lon="4.41251">
        <ele>518</ele>
        <time>2025-04-10T08:44:24Z</time>
      </trkpt>
      <trkpt lat="45.70252" lon="4.41353">
        <ele>510</ele>
        <time>2025-04-10T08:45:32Z</time>
      </trkpt>
      <trkpt lat="45.70214" lon="4.41407">
        <ele>508</ele>
        <time>2025-04-10T08:46:15Z</time>
      </trkpt>
      <trkpt lat="45.70234" lon="4.41467">
        <ele>510</ele>
        <time>2025-04-10T08:46:52Z</time>
      </trkpt>
      <trkpt lat="45.70235" lon="4.41467">
        <ele>510</ele>
        <time>2025-04-10T08:46:53Z</time>
      </trkpt>
      <trkpt lat="45.70269" lon="4.41438">
        <ele>507</ele>
        <time>2025-04-10T08:47:24Z</time>
      </trkpt>
      <trkpt lat="45.7033" lon="4.4142">
        <ele>505</ele>
        <time>2025-04-10T08:48:14Z</time>
      </trkpt>
      <trkpt lat="45.70387" lon="4.4145">
        <ele>513</ele>
        <time>2025-04-10T08:49:03Z</time>
      </trkpt>
      <trkpt lat="45.70397" lon="4.41469">
        <ele>516</ele>
        <time>2025-04-10T08:49:16Z</time>
      </trkpt>
      <trkpt lat="45.70449" lon="4.4152">
        <ele>522</ele>
        <time>2025-04-10T08:50:07Z</time>
      </trkpt>
      <trkpt lat="45.705" lon="4.41599">
        <ele>519</ele>
        <time>2025-04-10T08:51:07Z</time>
      </trkpt>
      <trkpt lat="45.70496" lon="4.41616">
        <ele>522</ele>
        <time>2025-04-10T08:51:17Z</time>
      </trkpt>
      <trkpt lat="45.70507" lon="4.41677">
        <ele>526</ele>
        <time>2025-04-10T08:51:52Z</time>
      </trkpt>
      <trkpt lat="45.70504" lon="4.41746">
        <ele>526</ele>
        <time>2025-04-10T08:52:31Z</time>
      </trkpt>
      <trkpt lat="45.70486" lon="4.41767">
        <ele>531</ele>
        <time>2025-04-10T08:52:49Z</time>
      </trkpt>
      <trkpt lat="45.70447" lon="4.41906">
        <ele>538</ele>
        <time>2025-04-10T08:54:13Z</time>
      </trkpt>
      <trkpt lat="45.70445" lon="4.42002">
        <ele>540</ele>
        <time>2025-04-10T08:55:07Z</time>
      </trkpt>
      <trkpt lat="45.70424" lon="4.42042">
        <ele>550</ele>
        <time>2025-04-10T08:55:35Z</time>
      </trkpt>
      <trkpt lat="45.70437" lon="4.42077">
        <ele>550</ele>
        <time>2025-04-10T08:55:57Z</time>
      </trkpt>
      <trkpt lat="45.70461" lon="4.42092">
        <ele>545</ele>
        <time>2025-04-10T08:56:18Z</time>
      </trkpt>
      <trkpt lat="45.70462" lon="4.42152">
        <ele>554</ele>
        <time>2025-04-10T08:56:51Z</time>
      </trkpt>
      <trkpt lat="45.70474" lon="4.42233">
        <ele>561</ele>
        <time>2025-04-10T08:57:38Z</time>
      </trkpt>
      <trkpt lat="45.70498" lon="4.42299">
        <ele>564</ele>
        <time>2025-04-10T08:58:19Z</time>
      </trkpt>
      <trkpt lat="45.70496" lon="4.42315">
        <ele>567</ele>
        <time>2025-04-10T08:58:28Z</time>
      </trkpt>
      <trkpt lat="45.70467" lon="4.42335">
        <ele>572</ele>
        <time>2025-04-10T08:58:54Z</time>
      </trkpt>
      <trkpt lat="45.70482" lon="4.424">
        <ele>571</ele>
        <time>2025-04-10T08:59:32Z</time>
      </trkpt>
      <trkpt lat="45.70503" lon="4.42382">
        <ele>571</ele>
        <time>2025-04-10T08:59:52Z</time>
      </trkpt>
      <trkpt lat="45.70541" lon="4.42332">
        <ele>565</ele>
        <time>2025-04-10T09:00:33Z</time>
      </trkpt>
      <trkpt lat="45.70599" lon="4.42318">
        <ele>555</ele>
        <time>2025-04-10T09:01:20Z</time>
      </trkpt>
      <trkpt lat="45.70702" lon="4.42287">
        <ele>539</ele>
        <time>2025-04-10T09:02:45Z</time>
      </trkpt>
      <trkpt lat="45.70756" lon="4.42258">
        <ele>532</ele>
        <time>2025-04-10T09:03:31Z</time>
      </trkpt>
      <trkpt lat="45.70789" lon="4.4225">
        <ele>531</ele>
        <time>2025-04-10T09:03:58Z</time>
      </trkpt>
      <trkpt lat="45.70822" lon="4.42252">
        <ele>531</ele>
        <time>2025-04-10T09:04:24Z</time>
      </trkpt>
      <trkpt lat="45.70838" lon="4.42231">
        <ele>530</ele>
        <time>2025-04-10T09:04:41Z</time>
      </trkpt>
      <trkpt lat="45.70842" lon="4.42182">
        <ele>529</ele>
        <time>2025-04-10T09:05:09Z</time>
      </trkpt>
      <trkpt lat="45.70826" lon="4.421">
        <ele>533</ele>
        <time>2025-04-10T09:05:57Z</time>
      </trkpt>
      <trkpt lat="45.70829" lon="4.42014">
        <ele>544</ele>
        <time>2025-04-10T09:06:45Z</time>
      </trkpt>
      <trkpt lat="45.70836" lon="4.41903">
        <ele>556</ele>
        <time>2025-04-10T09:07:47Z</time>
      </trkpt>
      <trkpt lat="45.7087" lon="4.41857">
        <ele>559</ele>
        <time>2025-04-10T09:08:25Z</time>
      </trkpt>
      <trkpt lat="45.70933" lon="4.41807">
        <ele>569</ele>
        <time>2025-04-10T09:09:22Z</time>
      </trkpt>
      <trkpt lat="45.70982" lon="4.41739">
        <ele>581</ele>
        <time>2025-04-10T09:10:17Z</time>
      </trkpt>
      <trkpt lat="45.70992" lon="4.41664">
        <ele>592</ele>
        <time>2025-04-10T09:11:00Z</time>
      </trkpt>
      <trkpt lat="45.70985" lon="4.4157">
        <ele>601</ele>
        <time>2025-04-10T09:11:52Z</time>
      </trkpt>
      <trkpt lat="45.70988" lon="4.41543">
        <ele>602</ele>
        <time>2025-04-10T09:12:08Z</time>
      </trkpt>
      <trkpt lat="45.71005" lon="4.41508">
        <ele>605</ele>
        <time>2025-04-10T09:12:32Z</time>
      </trkpt>
      <trkpt lat="45.71027" lon="4.41438">
        <ele>603</ele>
        <time>2025-04-10T09:13:14Z</time>
      </trkpt>
      <trkpt lat="45.71076" lon="4.41377">
        <ele>601</ele>
        <time>2025-04-10T09:14:06Z</time>
      </trkpt>
      <trkpt lat="45.71135" lon="4.4131">
        <ele>600</ele>
        <time>2025-04-10T09:15:07Z</time>
      </trkpt>
      <trkpt lat="45.71169" lon="4.41277">
        <ele>604</ele>
        <time>2025-04-10T09:15:40Z</time>
      </trkpt>
      <trkpt lat="45.71183" lon="4.41214">
        <ele>609</ele>
        <time>2025-04-10T09:16:17Z</time>
      </trkpt>
      <trkpt lat="45.71232" lon="4.41159">
        <ele>617</ele>
        <time>2025-04-10T09:17:06Z</time>
      </trkpt>
      <trkpt lat="45.71262" lon="4.41138">
        <ele>618</ele>
        <time>2025-04-10T09:17:33Z</time>
      </trkpt>
      <trkpt lat="45.71304" lon="4.41088">
        <ele>614</ele>
        <time>2025-04-10T09:18:17Z</time>
      </trkpt>
      <trkpt lat="45.71334" lon="4.41031">
        <ele>609</ele>
        <time>2025-04-10T09:18:57Z</time>
      </trkpt>
      <trkpt lat="45.71444" lon="4.40855">
        <ele>601</ele>
        <time>2025-04-10T09:21:09Z</time>
      </trkpt>
      <trkpt lat="45.71479" lon="4.40775">
        <ele>598</ele>
        <time>2025-04-10T09:22:02Z</time>
      </trkpt>
      <trkpt lat="45.71522" lon="4.40717">
        <ele>597</ele>
        <time>2025-04-10T09:22:49Z</time>
      </trkpt>
      <trkpt lat="45.71493" lon="4.40654">
        <ele>590</ele>
        <time>2025-04-10T09:23:31Z</time>
      </trkpt>
      <trkpt lat="45.71481" lon="4.40558">
        <ele>582</ele>
        <time>2025-04-10T09:24:26Z</time>
      </trkpt>
      <trkpt lat="45.71507" lon="4.40499">
        <ele>578</ele>
        <time>2025-04-10T09:25:05Z</time>
      </trkpt>
      <trkpt lat="45.71483" lon="4.40413">
        <ele>568</ele>
        <time>2025-04-10T09:25:56Z</time>
      </trkpt>
      <trkpt lat="45.71451" lon="4.40319">
        <ele>559</ele>
        <time>2025-04-10T09:26:55Z</time>
      </trkpt>
      <trkpt lat="45.71445" lon="4.40251">
        <ele>557</ele>
        <time>2025-04-10T09:27:33Z</time>
      </trkpt>
      <trkpt lat="45.71449" lon="4.40144">
        <ele>567</ele>
        <time>2025-04-10T09:28:33Z</time>
      </trkpt>
      <trkpt lat="45.71485" lon="4.40077">
        <ele>572</ele>
        <time>2025-04-10T09:29:20Z</time>
      </trkpt>
      <trkpt lat="45.71519" lon="4.39971">
        <ele>580</ele>
        <time>2025-04-10T09:30:26Z</time>
      </trkpt>
      <trkpt lat="45.71536" lon="4.39929">
        <ele>582</ele>
        <time>2025-04-10T09:30:53Z</time>
      </trkpt>
      <trkpt lat="45.71546" lon="4.39866">
        <ele>586</ele>
        <time>2025-04-10T09:31:29Z</time>
      </trkpt>
      <trkpt lat="45.7156" lon="4.39811">
        <ele>588</ele>
        <time>2025-04-10T09:32:02Z</time>
      </trkpt>
      <trkpt lat="45.71573" lon="4.39758">
        <ele>591</ele>
        <time>2025-04-10T09:32:33Z</time>
      </trkpt>
      <trkpt lat="45.71627" lon="4.39689">
        <ele>589</ele>
        <time>2025-04-10T09:33:31Z</time>
      </trkpt>
      <trkpt lat="45.71611" lon="4.39655">
        <ele>592</ele>
        <time>2025-04-10T09:33:54Z</time>
      </trkpt>
      <trkpt lat="45.7161" lon="4.39592">
        <ele>594</ele>
        <time>2025-04-10T09:34:29Z</time>
      </trkpt>
      <trkpt lat="45.71627" lon="4.3952">
        <ele>594</ele>
        <time>2025-04-10T09:35:12Z</time>
      </trkpt>
      <trkpt lat="45.71662" lon="4.39452">
        <ele>595</ele>
        <time>2025-04-10T09:35:59Z</time>
      </trkpt>
      <trkpt lat="45.71678" lon="4.39447">
        <ele>594</ele>
        <time>2025-04-10T09:36:12Z</time>
      </trkpt>
      <trkpt lat="45.71706" lon="4.39422">
        <ele>594</ele>
        <time>2025-04-10T09:36:38Z</time>
      </trkpt>
      <trkpt lat="45.71742" lon="4.39414">
        <ele>593</ele>
        <time>2025-04-10T09:37:07Z</time>
      </trkpt>
      <trkpt lat="45.71772" lon="4.39447">
        <ele>591</ele>
        <time>2025-04-10T09:37:38Z</time>
      </trkpt>
      <trkpt lat="45.71819" lon="4.39466">
        <ele>592</ele>
        <time>2025-04-10T09:38:17Z</time>
      </trkpt>
      <trkpt lat="45.71873" lon="4.39536">
        <ele>592</ele>
        <time>2025-04-10T09:39:15Z</time>
      </trkpt>
      <trkpt lat="45.71914" lon="4.39555">
        <ele>593</ele>
        <time>2025-04-10T09:39:50Z</time>
      </trkpt>
      <trkpt lat="45.71989" lon="4.39599">
        <ele>599</ele>
        <time>2025-04-10T09:40:55Z</time>
      </trkpt>
      <trkpt lat="45.72029" lon="4.39549">
        <ele>599</ele>
        <time>2025-04-10T09:41:37Z</time>
      </trkpt>
      <trkpt lat="45.72087" lon="4.39533">
        <ele>602</ele>
        <time>2025-04-10T09:42:24Z</time>
      </trkpt>
      <trkpt lat="45.72252" lon="4.39575">
        <ele>616</ele>
        <time>2025-04-10T09:44:39Z</time>
      </trkpt>
      <trkpt lat="45.72315" lon="4.39615">
        <ele>618</ele>
        <time>2025-04-10T09:45:34Z</time>
      </trkpt>
      <trkpt lat="45.72449" lon="4.39678">
        <ele>616</ele>
        <time>2025-04-10T09:47:27Z</time>
      </trkpt>
      <trkpt lat="45.72574" lon="4.39809">
        <ele>613</ele>
        <time>2025-04-10T09:49:31Z</time>
      </trkpt>
      <trkpt lat="45.7268" lon="4.39884">
        <ele>615</ele>
        <time>2025-04-10T09:51:05Z</time>
      </trkpt>
      <trkpt lat="45.72768" lon="4.39916">
        <ele>609</ele>
        <time>2025-04-10T09:52:18Z</time>
      </trkpt>
      <trkpt lat="45.72798" lon="4.39946">
        <ele>607</ele>
        <time>2025-04-10T09:52:47Z</time>
      </trkpt>
      <trkpt lat="45.72855" lon="4.40028">
        <ele>606</ele>
        <time>2025-04-10T09:53:52Z</time>
      </trkpt>
      <trkpt lat="45.72876" lon="4.40003">
        <ele>606</ele>
        <time>2025-04-10T09:54:14Z</time>
      </trkpt>
      <trkpt lat="45.72902" lon="4.39952">
        <ele>607</ele>
        <time>2025-04-10T09:54:49Z</time>
      </trkpt>
      <trkpt lat="45.72928" lon="4.39881">
        <ele>604</ele>
        <time>2025-04-10T09:55:34Z</time>
      </trkpt>
      <trkpt lat="45.72966" lon="4.39798">
        <ele>597</ele>
        <time>2025-04-10T09:56:29Z</time>
      </trkpt>
      <trkpt lat="45.72986" lon="4.39728">
        <ele>593</ele>
        <time>2025-04-10T09:57:12Z</time>
      </trkpt>
      <trkpt lat="45.73021" lon="4.39622">
        <ele>583</ele>
        <time>2025-04-10T09:58:17Z</time>
      </trkpt>
      <trkpt lat="45.73046" lon="4.39443">
        <ele>572</ele>
        <time>2025-04-10T09:59:59Z</time>
      </trkpt>
      <trkpt lat="45.73061" lon="4.39396">
        <ele>570</ele>
        <time>2025-04-10T10:00:28Z</time>
      </trkpt>
      <trkpt lat="45.73125" lon="4.39271">
        <ele>562</ele>
        <time>2025-04-10T10:01:55Z</time>
      </trkpt>
      <trkpt lat="45.73154" lon="4.39191">
        <ele>556</ele>
        <time>2025-04-10T10:02:45Z</time>
      </trkpt>
      <trkpt lat="45.73177" lon="4.39141">
        <ele>552</ele>
        <time>2025-04-10T10:03:19Z</time>
      </trkpt>
      <trkpt lat="45.73209" lon="4.39072">
        <ele>548</ele>
        <time>2025-04-10T10:04:05Z</time>
      </trkpt>
      <trkpt lat="45.73169" lon="4.39035">
        <ele>547</ele>
        <time>2025-04-10T10:04:43Z</time>
      </trkpt>
      <trkpt lat="45.73063" lon="4.39">
        <ele>546</ele>
        <time>2025-04-10T10:06:10Z</time>
      </trkpt>
      <trkpt lat="45.72906" lon="4.38976">
        <ele>544</ele>
        <time>2025-04-10T10:08:17Z</time>
      </trkpt>
      <trkpt lat="45.72856" lon="4.38945">
        <ele>544</ele>
        <time>2025-04-10T10:09:00Z</time>
      </trkpt>
      <trkpt lat="45.7279" lon="4.38932">
        <ele>545</ele>
        <time>2025-04-10T10:09:54Z</time>
      </trkpt>
      <trkpt lat="45.72687" lon="4.38932">
        <ele>546</ele>
        <time>2025-04-10T10:11:16Z</time>
      </trkpt>
      <trkpt lat="45.7262" lon="4.38946">
        <ele>546</ele>
        <time>2025-04-10T10:12:10Z</time>
      </trkpt>
      <trkpt lat="45.7265" lon="4.38913">
        <ele>545</ele>
        <time>2025-04-10T10:12:41Z</time>
      </trkpt>
      <trkpt lat="45.72689" lon="4.38823">
        <ele>541</ele>
        <time>2025-04-10T10:13:40Z</time>
      </trkpt>
      <trkpt lat="45.72768" lon="4.38782">
        <ele>541</ele>
        <time>2025-04-10T10:14:47Z</time>
      </trkpt>
      <trkpt lat="45.72793" lon="4.38749">
        <ele>543</ele>
        <time>2025-04-10T10:15:14Z</time>
      </trkpt>
      <trkpt lat="45.72869" lon="4.38606">
        <ele>555</ele>
        <time>2025-04-10T10:16:55Z</time>
      </trkpt>
      <trkpt lat="45.72905" lon="4.38514">
        <ele>563</ele>
        <time>2025-04-10T10:17:54Z</time>
      </trkpt>
      <trkpt lat="45.72884" lon="4.38481">
        <ele>564</ele>
        <time>2025-04-10T10:18:19Z</time>
      </trkpt>
      <trkpt lat="45.72826" lon="4.38439">
        <ele>568</ele>
        <time>2025-04-10T10:19:11Z</time>
      </trkpt>
      <trkpt lat="45.72771" lon="4.38391">
        <ele>571</ele>
        <time>2025-04-10T10:20:02Z</time>
      </trkpt>
      <trkpt lat="45.7274" lon="4.38338">
        <ele>575</ele>
        <time>2025-04-10T10:20:41Z</time>
      </trkpt>
      <trkpt lat="45.72684" lon="4.38202">
        <ele>580</ele>
        <time>2025-04-10T10:22:09Z</time>
      </trkpt>
      <trkpt lat="45.72688" lon="4.38128">
        <ele>582</ele>
        <time>2025-04-10T10:22:51Z</time>
      </trkpt>
      <trkpt lat="45.7268" lon="4.38058">
        <ele>583</ele>
        <time>2025-04-10T10:23:30Z</time>
      </trkpt>
      <trkpt lat="45.72654" lon="4.3796">
        <ele>583</ele>
        <time>2025-04-10T10:24:29Z</time>
      </trkpt>
      <trkpt lat="45.72645" lon="4.37902">
        <ele>584</ele>
        <time>2025-04-10T10:25:02Z</time>
      </trkpt>
      <trkpt lat="45.72594" lon="4.37843">
        <ele>583</ele>
        <time>2025-04-10T10:25:55Z</time>
      </trkpt>
      <trkpt lat="45.72516" lon="4.37733">
        <ele>584</ele>
        <time>2025-04-10T10:27:22Z</time>
      </trkpt>
      <trkpt lat="45.72454" lon="4.37654">
        <ele>584</ele>
        <time>2025-04-10T10:28:29Z</time>
      </trkpt>
      <trkpt lat="45.72442" lon="4.37628">
        <ele>584</ele>
        <time>2025-04-10T10:28:46Z</time>
      </trkpt>
      <trkpt lat="45.72538" lon="4.37677">
        <ele>585</ele>
        <time>2025-04-10T10:30:08Z</time>
      </trkpt>
      <trkpt lat="45.72552" lon="4.37663">
        <ele>585</ele>
        <time>2025-04-10T10:30:21Z</time>
      </trkpt>
      <trkpt lat="45.72582" lon="4.37579">
        <ele>583</ele>
        <time>2025-04-10T10:31:14Z</time>
      </trkpt>
      <trkpt lat="45.72611" lon="4.37516">
        <ele>580</ele>
        <time>2025-04-10T10:31:56Z</time>
      </trkpt>
      <trkpt lat="45.72582" lon="4.37399">
        <ele>575</ele>
        <time>2025-04-10T10:33:06Z</time>
      </trkpt>
      <trkpt lat="45.72562" lon="4.37272">
        <ele>574</ele>
        <time>2025-04-10T10:34:18Z</time>
      </trkpt>
      <trkpt lat="45.72599" lon="4.37232">
        <ele>574</ele>
        <time>2025-04-10T10:34:55Z</time>
      </trkpt>
      <trkpt lat="45.72681" lon="4.3714">
        <ele>575</ele>
        <time>2025-04-10T10:36:19Z</time>
      </trkpt>
      <trkpt lat="45.72728" lon="4.37079">
        <ele>574</ele>
        <time>2025-04-10T10:37:10Z</time>
      </trkpt>
      <trkpt lat="45.72732" lon="4.3706">
        <ele>573</ele>
        <time>2025-04-10T10:37:21Z</time>
      </trkpt>
      <trkpt lat="45.7269" lon="4.36995">
        <ele>573</ele>
        <time>2025-04-10T10:38:10Z</time>
      </trkpt>
      <trkpt lat="45.72698" lon="4.36967">
        <ele>572</ele>
        <time>2025-04-10T10:38:27Z</time>
      </trkpt>
      <trkpt lat="45.72746" lon="4.36832">
        <ele>564</ele>
        <time>2025-04-10T10:39:52Z</time>
      </trkpt>
      <trkpt lat="45.72751" lon="4.36813">
        <ele>565</ele>
        <time>2025-04-10T10:40:03Z</time>
      </trkpt>
      <trkpt lat="45.7277" lon="4.36763">
        <ele>565</ele>
        <time>2025-04-10T10:40:35Z</time>
      </trkpt>
      <trkpt lat="45.72754" lon="4.36736">
        <ele>567</ele>
        <time>2025-04-10T10:40:55Z</time>
      </trkpt>
      <trkpt lat="45.72759" lon="4.36708">
        <ele>566</ele>
        <time>2025-04-10T10:41:11Z</time>
      </trkpt>
      <trkpt lat="45.72786" lon="4.36625">
        <ele>559</ele>
        <time>2025-04-10T10:42:02Z</time>
      </trkpt>
      <trkpt lat="45.72804" lon="4.36585">
        <ele>554</ele>
        <time>2025-04-10T10:42:29Z</time>
      </trkpt>
      <trkpt lat="45.72792" lon="4.36561">
        <ele>551</ele>
        <time>2025-04-10T10:42:45Z</time>
      </trkpt>
      <trkpt lat="45.72779" lon="4.36548">
        <ele>550</ele>
        <time>2025-04-10T10:42:58Z</time>
      </trkpt>
      <trkpt lat="45.72754" lon="4.36539">
        <ele>551</ele>
        <time>2025-04-10T10:43:19Z</time>
      </trkpt>
      <trkpt lat="45.72727" lon="4.36539">
        <ele>550</ele>
        <time>2025-04-10T10:43:40Z</time>
      </trkpt>
      <trkpt lat="45.72682" lon="4.36514">
        <ele>542</ele>
        <time>2025-04-10T10:44:19Z</time>
      </trkpt>
      <trkpt lat="45.72664" lon="4.3651">
        <ele>540</ele>
        <time>2025-04-10T10:44:33Z</time>
      </trkpt>
      <trkpt lat="45.72626" lon="4.36516">
        <ele>537</ele>
        <time>2025-04-10T10:45:04Z</time>
      </trkpt>
      <trkpt lat="45.7258" lon="4.36519">
        <ele>532</ele>
        <time>2025-04-10T10:45:41Z</time>
      </trkpt>
      <trkpt lat="45.72575" lon="4.36513">
        <ele>531</ele>
        <time>2025-04-10T10:45:46Z</time>
      </trkpt>
      <trkpt lat="45.72559" lon="4.36532">
        <ele>534</ele>
        <time>2025-04-10T10:46:03Z</time>
      </trkpt>
      <trkpt lat="45.72548" lon="4.36553">
        <ele>537</ele>
        <time>2025-04-10T10:46:17Z</time>
      </trkpt>
      <trkpt lat="45.72519" lon="4.36589">
        <ele>541</ele>
        <time>2025-04-10T10:46:48Z</time>
      </trkpt>
      <trkpt lat="45.72514" lon="4.36603">
        <ele>543</ele>
        <time>2025-04-10T10:46:57Z</time>
      </trkpt>
      <trkpt lat="45.7249" lon="4.36643">
        <ele>550</ele>
        <time>2025-04-10T10:47:26Z</time>
      </trkpt>
      <trkpt lat="45.7246" lon="4.36679">
        <ele>552</ele>
        <time>2025-04-10T10:47:58Z</time>
      </trkpt>
      <trkpt lat="45.72449" lon="4.36698">
        <ele>552</ele>
        <time>2025-04-10T10:48:12Z</time>
      </trkpt>
      <trkpt lat="45.72436" lon="4.36742">
        <ele>553</ele>
        <time>2025-04-10T10:48:38Z</time>
      </trkpt>
      <trkpt lat="45.72404" lon="4.36782">
        <ele>551</ele>
        <time>2025-04-10T10:49:12Z</time>
      </trkpt>
      <trkpt lat="45.72378" lon="4.36787">
        <ele>549</ele>
        <time>2025-04-10T10:49:33Z</time>
      </trkpt>
      <trkpt lat="45.72355" lon="4.36815">
        <ele>549</ele>
        <time>2025-04-10T10:49:57Z</time>
      </trkpt>
      <trkpt lat="45.72319" lon="4.3691">
        <ele>553</ele>
        <time>2025-04-10T10:50:58Z</time>
      </trkpt>
      <trkpt lat="45.72296" lon="4.36969">
        <ele>553</ele>
        <time>2025-04-10T10:51:36Z</time>
      </trkpt>
      <trkpt lat="45.72271" lon="4.36969">
        <ele>551</ele>
        <time>2025-04-10T10:51:56Z</time>
      </trkpt>
      <trkpt lat="45.72228" lon="4.36955">
        <ele>549</ele>
        <time>2025-04-10T10:52:31Z</time>
      </trkpt>
      <trkpt lat="45.72199" lon="4.36959">
        <ele>548</ele>
        <time>2025-04-10T10:52:54Z</time>
      </trkpt>
      <trkpt lat="45.72172" lon="4.36958">
        <ele>548</ele>
        <time>2025-04-10T10:53:16Z</time>
      </trkpt>
      <trkpt lat="45.72144" lon="4.36967">
        <ele>550</ele>
        <time>2025-04-10T10:53:39Z</time>
      </trkpt>
      <trkpt lat="45.72097" lon="4.36993">
        <ele>555</ele>
        <time>2025-04-10T10:54:19Z</time>
      </trkpt>
      <trkpt lat="45.72074" lon="4.36998">
        <ele>557</ele>
        <time>2025-04-10T10:54:38Z</time>
      </trkpt>
      <trkpt lat="45.72022" lon="4.36974">
        <ele>564</ele>
        <time>2025-04-10T10:55:22Z</time>
      </trkpt>
      <trkpt lat="45.71993" lon="4.36962">
        <ele>567</ele>
        <time>2025-04-10T10:55:46Z</time>
      </trkpt>
      <trkpt lat="45.71968" lon="4.36961">
        <ele>569</ele>
        <time>2025-04-10T10:56:06Z</time>
      </trkpt>
      <trkpt lat="45.71955" lon="4.36983">
        <ele>571</ele>
        <time>2025-04-10T10:56:22Z</time>
      </trkpt>
      <trkpt lat="45.71889" lon="4.37028">
        <ele>575</ele>
        <time>2025-04-10T10:57:20Z</time>
      </trkpt>
      <trkpt lat="45.7187" lon="4.37045">
        <ele>574</ele>
        <time>2025-04-10T10:57:38Z</time>
      </trkpt>
      <trkpt lat="45.71848" lon="4.37071">
        <ele>574</ele>
        <time>2025-04-10T10:58:01Z</time>
      </trkpt>
      <trkpt lat="45.71805" lon="4.37097">
        <ele>572</ele>
        <time>2025-04-10T10:58:39Z</time>
      </trkpt>
      <trkpt lat="45.71755" lon="4.37114">
        <ele>571</ele>
        <time>2025-04-10T10:59:20Z</time>
      </trkpt>
      <trkpt lat="45.71746" lon="4.37134">
        <ele>570</ele>
        <time>2025-04-10T10:59:33Z</time>
      </trkpt>
      <trkpt lat="45.71738" lon="4.37177">
        <ele>568</ele>
        <time>2025-04-10T10:59:58Z</time>
      </trkpt>
      <trkpt lat="45.71705" lon="4.37207">
        <ele>563</ele>
        <time>2025-04-10T11:00:29Z</time>
      </trkpt>
      <trkpt lat="45.71693" lon="4.37233">
        <ele>561</ele>
        <time>2025-04-10T11:00:47Z</time>
      </trkpt>
      <trkpt lat="45.71671" lon="4.37215">
        <ele>561</ele>
        <time>2025-04-10T11:01:07Z</time>
      </trkpt>
      <trkpt lat="45.71549" lon="4.37261">
        <ele>553</ele>
        <time>2025-04-10T11:02:48Z</time>
      </trkpt>
      <trkpt lat="45.71419" lon="4.37313">
        <ele>539</ele>
        <time>2025-04-10T11:04:36Z</time>
      </trkpt>
      <trkpt lat="45.71372" lon="4.37321">
        <ele>534</ele>
        <time>2025-04-10T11:05:14Z</time>
      </trkpt>
      <trkpt lat="45.71327" lon="4.37327">
        <ele>529</ele>
        <time>2025-04-10T11:05:50Z</time>
      </trkpt>
      <trkpt lat="45.71308" lon="4.37345">
        <ele>528</ele>
        <time>2025-04-10T11:06:08Z</time>
      </trkpt>
      <trkpt lat="45.71298" lon="4.3736">
        <ele>527</ele>
        <time>2025-04-10T11:06:20Z</time>
      </trkpt>
      <trkpt lat="45.71283" lon="4.37354">
        <ele>527</ele>
        <time>2025-04-10T11:06:32Z</time>
      </trkpt>
      <trkpt lat="45.71248" lon="4.37272">
        <ele>531</ele>
        <time>2025-04-10T11:07:26Z</time>
      </trkpt>
      <trkpt lat="45.7118" lon="4.37213">
        <ele>536</ele>
        <time>2025-04-10T11:08:30Z</time>
      </trkpt>
      <trkpt lat="45.71155" lon="4.37182">
        <ele>539</ele>
        <time>2025-04-10T11:08:56Z</time>
      </trkpt>
      <trkpt lat="45.71145" lon="4.37165">
        <ele>540</ele>
        <time>2025-04-10T11:09:09Z</time>
      </trkpt>
      <trkpt lat="45.7113" lon="4.37093">
        <ele>545</ele>
        <time>2025-04-10T11:09:51Z</time>
      </trkpt>
      <trkpt lat="45.71049" lon="4.36991">
        <ele>547</ele>
        <time>2025-04-10T11:11:17Z</time>
      </trkpt>
      <trkpt lat="45.71032" lon="4.36985">
        <ele>547</ele>
        <time>2025-04-10T11:11:31Z</time>
      </trkpt>
      <trkpt lat="45.7101" lon="4.36995">
        <ele>545</ele>
        <time>2025-04-10T11:11:50Z</time>
      </trkpt>
      <trkpt lat="45.70988" lon="4.36996">
        <ele>544</ele>
        <time>2025-04-10T11:12:07Z</time>
      </trkpt>
      <trkpt lat="45.7097" lon="4.36982">
        <ele>545</ele>
        <time>2025-04-10T11:12:24Z</time>
      </trkpt>
      <trkpt lat="45.7094" lon="4.36925">
        <ele>546</ele>
        <time>2025-04-10T11:13:03Z</time>
      </trkpt>
      <trkpt lat="45.70899" lon="4.3688">
        <ele>547</ele>
        <time>2025-04-10T11:13:45Z</time>
      </trkpt>
      <trkpt lat="45.70884" lon="4.36866">
        <ele>547</ele>
        <time>2025-04-10T11:13:59Z</time>
      </trkpt>
      <trkpt lat="45.70846" lon="4.36833">
        <ele>550</ele>
        <time>2025-04-10T11:14:35Z</time>
      </trkpt>
      <trkpt lat="45.70806" lon="4.36744">
        <ele>554</ele>
        <time>2025-04-10T11:15:34Z</time>
      </trkpt>
      <trkpt lat="45.70794" lon="4.3668">
        <ele>558</ele>
        <time>2025-04-10T11:16:11Z</time>
      </trkpt>
      <trkpt lat="45.70765" lon="4.36599">
        <ele>561</ele>
        <time>2025-04-10T11:17:02Z</time>
      </trkpt>
      <trkpt lat="45.7075" lon="4.36557">
        <ele>561</ele>
        <time>2025-04-10T11:17:28Z</time>
      </trkpt>
      <trkpt lat="45.70735" lon="4.36535">
        <ele>561</ele>
        <time>2025-04-10T11:17:45Z</time>
      </trkpt>
      <trkpt lat="45.70652" lon="4.36503">
        <ele>568</ele>
        <time>2025-04-10T11:18:54Z</time>
      </trkpt>
      <trkpt lat="45.70605" lon="4.36417">
        <ele>573</ele>
        <time>2025-04-10T11:19:55Z</time>
      </trkpt>
      <trkpt lat="45.70537" lon="4.36316">
        <ele>579</ele>
        <time>2025-04-10T11:21:14Z</time>
      </trkpt>
      <trkpt lat="45.70529" lon="4.3628">
        <ele>581</ele>
        <time>2025-04-10T11:21:35Z</time>
      </trkpt>
      <trkpt lat="45.70526" lon="4.36101">
        <ele>587</ele>
        <time>2025-04-10T11:23:15Z</time>
      </trkpt>
      <trkpt lat="45.70476" lon="4.35956">
        <ele>586</ele>
        <time>2025-04-10T11:24:45Z</time>
      </trkpt>
      <trkpt lat="45.70445" lon="4.35901">
        <ele>584</ele>
        <time>2025-04-10T11:25:25Z</time>
      </trkpt>
      <trkpt lat="45.70419" lon="4.35877">
        <ele>582</ele>
        <time>2025-04-10T11:25:50Z</time>
      </trkpt>
      <trkpt lat="45.70301" lon="4.35826">
        <ele>581</ele>
        <time>2025-04-10T11:27:28Z</time>
      </trkpt>
      <trkpt lat="45.70193" lon="4.35838">
        <ele>581</ele>
        <time>2025-04-10T11:28:55Z</time>
      </trkpt>
      <trkpt lat="45.7002" lon="4.35849">
        <ele>574</ele>
        <time>2025-04-10T11:31:14Z</time>
      </trkpt>
      <trkpt lat="45.69916" lon="4.35842">
        <ele>570</ele>
        <time>2025-04-10T11:32:37Z</time>
      </trkpt>
      <trkpt lat="45.69884" lon="4.35843">
        <ele>571</ele>
        <time>2025-04-10T11:33:03Z</time>
      </trkpt>
      <trkpt lat="45.69811" lon="4.3585">
        <ele>571</ele>
        <time>2025-04-10T11:34:01Z</time>
      </trkpt>
      <trkpt lat="45.69775" lon="4.35856">
        <ele>570</ele>
        <time>2025-04-10T11:34:30Z</time>
      </trkpt>
      <trkpt lat="45.69756" lon="4.35851">
        <ele>570</ele>
        <time>2025-04-10T11:34:46Z</time>
      </trkpt>
      <trkpt lat="45.69632" lon="4.35771">
        <ele>560</ele>
        <time>2025-04-10T11:36:35Z</time>
      </trkpt>
      <trkpt lat="45.69605" lon="4.35745">
        <ele>557</ele>
        <time>2025-04-10T11:37:01Z</time>
      </trkpt>
      <trkpt lat="45.69588" lon="4.3572">
        <ele>554</ele>
        <time>2025-04-10T11:37:20Z</time>
      </trkpt>
      <trkpt lat="45.69567" lon="4.35706">
        <ele>551</ele>
        <time>2025-04-10T11:37:39Z</time>
      </trkpt>
      <trkpt lat="45.69544" lon="4.35662">
        <ele>546</ele>
        <time>2025-04-10T11:38:10Z</time>
      </trkpt>
      <trkpt lat="45.69544" lon="4.35628">
        <ele>544</ele>
        <time>2025-04-10T11:38:29Z</time>
      </trkpt>
      <trkpt lat="45.69527" lon="4.35612">
        <ele>542</ele>
        <time>2025-04-10T11:38:45Z</time>
      </trkpt>
      <trkpt lat="45.69453" lon="4.35576">
        <ele>536</ele>
        <time>2025-04-10T11:39:48Z</time>
      </trkpt>
      <trkpt lat="45.69409" lon="4.35555">
        <ele>530</ele>
        <time>2025-04-10T11:40:25Z</time>
      </trkpt>
      <trkpt lat="45.69378" lon="4.35502">
        <ele>523</ele>
        <time>2025-04-10T11:41:03Z</time>
      </trkpt>
      <trkpt lat="45.6936" lon="4.35498">
        <ele>521</ele>
        <time>2025-04-10T11:41:18Z</time>
      </trkpt>
      <trkpt lat="45.69335" lon="4.35471">
        <ele>516</ele>
        <time>2025-04-10T11:41:43Z</time>
      </trkpt>
      <trkpt lat="45.69303" lon="4.35479">
        <ele>510</ele>
        <time>2025-04-10T11:42:09Z</time>
      </trkpt>
      <trkpt lat="45.69285" lon="4.35498">
        <ele>508</ele>
        <time>2025-04-10T11:42:27Z</time>
      </trkpt>
      <trkpt lat="45.69256" lon="4.35639">
        <ele>499</ele>
        <time>2025-04-10T11:43:49Z</time>
      </trkpt>
      <trkpt lat="45.69208" lon="4.35668">
        <ele>498</ele>
        <time>2025-04-10T11:44:31Z</time>
      </trkpt>
      <trkpt lat="45.69171" lon="4.35638">
        <ele>498</ele>
        <time>2025-04-10T11:45:05Z</time>
      </trkpt>
      <trkpt lat="45.69116" lon="4.35613">
        <ele>506</ele>
        <time>2025-04-10T11:45:51Z</time>
      </trkpt>
      <trkpt lat="45.69064" lon="4.35611">
        <ele>514</ele>
        <time>2025-04-10T11:46:33Z</time>
      </trkpt>
      <trkpt lat="45.68977" lon="4.35645">
        <ele>530</ele>
        <time>2025-04-10T11:47:45Z</time>
      </trkpt>
      <trkpt lat="45.68959" lon="4.35613">
        <ele>531</ele>
        <time>2025-04-10T11:48:08Z</time>
      </trkpt>
      <trkpt lat="45.68948" lon="4.35577">
        <ele>532</ele>
        <time>2025-04-10T11:48:30Z</time>
      </trkpt>
      <trkpt lat="45.68926" lon="4.35569">
        <ele>536</ele>
        <time>2025-04-10T11:48:48Z</time>
      </trkpt>
      <trkpt lat="45.68911" lon="4.35552">
        <ele>537</ele>
        <time>2025-04-10T11:49:03Z</time>
      </trkpt>
      <trkpt lat="45.68889" lon="4.3554">
        <ele>539</ele>
        <time>2025-04-10T11:49:22Z</time>
      </trkpt>
      <trkpt lat="45.68871" lon="4.35514">
        <ele>539</ele>
        <time>2025-04-10T11:49:43Z</time>
      </trkpt>
      <trkpt lat="45.68847" lon="4.35516">
        <ele>542</ele>
        <time>2025-04-10T11:50:02Z</time>
      </trkpt>
      <trkpt lat="45.68827" lon="4.35593">
        <ele>546</ele>
        <time>2025-04-10T11:50:48Z</time>
      </trkpt>
      <trkpt lat="45.68864" lon="4.35613">
        <ele>544</ele>
        <time>2025-04-10T11:51:20Z</time>
      </trkpt>
      <trkpt lat="45.68865" lon="4.35602">
        <ele>543</ele>
        <time>2025-04-10T11:51:26Z</time>
      </trkpt>
    </trkseg>
  </trk>
</gpx>